Time;durP1;ratioP1;P1;durP2;ratioP2;P2;SDS_P1;SDS_P2;PMS_P1;PMS_P2;Temp;Humidity;BMP_temperature;BMP_pressure;BME280_temperature;BME280_humidity;BME280_pressure;Samples;Min_cycle;Max_cycle;Signal;HPM_P1;HPM_P2
2021/11/23 00:01:19;;;;;;;12.70;7.90;;;;;;;2.96;93.75;96464.63;4984484;28;20035;-55
2021/11/23 00:03:47;;;;;;;14.73;7.95;;;;;;;2.77;94.61;96474.25;4992119;28;20407;-56
2021/11/23 00:06:14;;;;;;;11.75;7.93;;;;;;;2.93;93.87;96473.19;4991900;28;20426;-56
2021/11/23 00:08:41;;;;;;;12.10;7.43;;;;;;;3.13;93.20;96466.97;4988328;28;20039;-57
2021/11/23 00:11:09;;;;;;;11.50;7.75;;;;;;;2.69;92.45;96474.78;4989474;28;20034;-55
2021/11/23 00:13:36;;;;;;;12.00;7.38;;;;;;;2.83;93.63;96478.53;4988574;28;20050;-57
2021/11/23 00:16:03;;;;;;;14.18;7.85;;;;;;;2.99;92.94;96482.78;4989530;28;20149;-57
2021/11/23 00:18:30;;;;;;;11.93;7.97;;;;;;;2.77;93.35;96479.59;4989755;28;20122;-55
2021/11/23 00:20:57;;;;;;;13.32;7.50;;;;;;;2.55;93.88;96482.56;4991576;28;20042;-57
2021/11/23 00:23:24;;;;;;;12.43;7.90;;;;;;;2.58;94.37;96477.47;4998016;28;20105;-55
2021/11/23 00:25:51;;;;;;;12.63;7.80;;;;;;;2.61;94.25;96480.69;4991542;28;20082;-56
2021/11/23 00:28:18;;;;;;;13.02;8.18;;;;;;;2.24;93.59;96485.22;4985336;28;20058;-57
2021/11/23 00:30:46;;;;;;;13.77;7.75;;;;;;;2.49;94.82;96484.41;4991071;28;20042;-57
2021/11/23 00:33:14;;;;;;;13.77;8.05;;;;;;;2.32;95.11;96483.88;4980766;28;20047;-57
2021/11/23 00:35:41;;;;;;;12.48;8.05;;;;;;;2.36;94.89;96484.13;4989426;28;20039;-53
2021/11/23 00:38:14;;;;;;;12.77;7.95;;;;;;;2.47;94.26;96483.06;4991222;28;20053;-54
2021/11/23 00:40:42;;;;;;;12.88;7.82;;;;;;;2.57;93.70;96488.44;4993148;28;20125;-57
2021/11/23 00:43:09;;;;;;;11.77;6.90;;;;;;;2.02;95.81;96495.31;4989578;28;20138;-54
2021/11/23 00:45:37;;;;;;;11.77;7.13;;;;;;;1.89;96.65;96485.94;4982739;28;20098;-55
2021/11/23 00:48:04;;;;;;;12.18;7.32;;;;;;;2.48;94.60;96488.16;4990166;28;20057;-53
2021/11/23 00:50:33;;;;;;;13.30;8.30;;;;;;;2.48;94.03;96493.50;4984250;28;20100;-52
2021/11/23 00:53:01;;;;;;;11.90;7.93;;;;;;;2.42;94.45;96491.09;4990906;28;20054;-50
2021/11/23 00:55:29;;;;;;;13.18;7.80;;;;;;;1.98;94.69;96488.88;4989194;28;20054;-56
2021/11/23 00:57:57;;;;;;;12.38;7.47;;;;;;;2.01;94.19;96491.81;4990803;28;20046;-53
2021/11/23 01:00:24;;;;;;;14.88;8.30;;;;;;;2.35;93.69;96494.03;4986542;28;20484;-53
2021/11/23 01:02:51;;;;;;;14.25;8.55;;;;;;;2.21;92.68;96498.25;4974085;28;20046;-53
2021/11/23 01:05:18;;;;;;;12.63;7.97;;;;;;;2.08;93.59;96505.72;4979581;28;20043;-52
2021/11/23 01:07:44;;;;;;;14.80;9.18;;;;;;;2.21;93.54;96500.94;4971810;28;20066;-53
2021/11/23 01:10:12;;;;;;;13.68;8.43;;;;;;;2.34;92.96;96498.56;4988146;28;20041;-52
2021/11/23 01:12:39;;;;;;;12.32;7.97;;;;;;;2.25;93.52;96507.38;4992245;28;20579;-51
2021/11/23 01:15:08;;;;;;;13.68;8.15;;;;;;;2.36;92.91;96505.50;4987754;28;20415;-55
2021/11/23 01:17:35;;;;;;;12.93;7.80;;;;;;;2.63;91.63;96506.03;4992756;28;20054;-52
2021/11/23 01:20:06;;;;;;;12.68;8.23;;;;;;;2.32;93.39;96511.38;4994126;28;20646;-53
2021/11/23 01:22:33;;;;;;;13.13;7.80;;;;;;;2.03;93.13;96510.25;4977336;28;20058;-50
2021/11/23 01:25:00;;;;;;;13.00;7.97;;;;;;;2.12;93.21;96514.00;4992559;28;20053;-53
2021/11/23 01:27:28;;;;;;;11.55;7.10;;;;;;;2.17;93.77;96508.66;4994633;28;20046;-52
2021/11/23 01:29:55;;;;;;;13.90;8.50;;;;;;;2.25;93.37;96510.03;4989878;28;20057;-54
2021/11/23 01:32:23;;;;;;;12.65;7.50;;;;;;;2.20;92.98;96512.69;4984343;28;20047;-52
2021/11/23 01:34:49;;;;;;;13.10;7.80;;;;;;;1.96;93.33;96509.69;4994746;28;20053;-49
2021/11/23 01:37:16;;;;;;;12.93;8.25;;;;;;;2.18;91.45;96514.81;4994408;28;20046;-51
2021/11/23 01:39:43;;;;;;;12.05;7.43;;;;;;;2.25;91.21;96518.03;4987956;28;20380;-53
2021/11/23 01:42:11;;;;;;;13.10;7.65;;;;;;;2.44;90.21;96516.47;4984934;28;20555;-56
2021/11/23 01:44:38;;;;;;;12.18;7.40;;;;;;;2.00;92.27;96508.91;4975378;28;20070;-53
2021/11/23 01:47:05;;;;;;;13.40;7.45;;;;;;;2.23;91.58;96517.50;4979659;28;20046;-51
2021/11/23 01:49:32;;;;;;;12.70;8.23;;;;;;;2.07;92.09;96512.13;4992751;28;20046;-53
2021/11/23 01:51:59;;;;;;;15.15;8.07;;;;;;;2.24;91.44;96508.41;4993053;28;20053;-51
2021/11/23 01:54:26;;;;;;;14.70;7.75;;;;;;;2.31;91.83;96506.31;4991929;28;20122;-54
2021/11/23 01:56:53;;;;;;;12.57;7.43;;;;;;;2.01;92.35;96507.81;4993232;28;20042;-52
2021/11/23 01:59:21;;;;;;;14.95;8.48;;;;;;;2.04;92.09;96501.97;4986951;28;20050;-52
2021/11/23 02:01:48;;;;;;;13.57;8.23;;;;;;;2.17;92.17;96511.34;4991690;28;20070;-54
2021/11/23 02:04:15;;;;;;;12.45;7.40;;;;;;;2.08;91.77;96505.72;4992556;28;20074;-52
2021/11/23 02:06:42;;;;;;;11.55;6.82;;;;;;;2.03;91.84;96508.38;4977071;28;20069;-50
2021/11/23 02:09:09;;;;;;;15.27;7.75;;;;;;;1.79;92.92;96509.94;4981579;28;20042;-51
2021/11/23 02:11:36;;;;;;;14.05;7.72;;;;;;;1.92;92.30;96512.09;4983777;28;20048;-51
2021/11/23 02:14:03;;;;;;;13.18;7.28;;;;;;;1.72;91.22;96522.69;4986297;28;20489;-51
2021/11/23 02:16:32;;;;;;;13.32;7.38;;;;;;;2.07;91.83;96525.47;4990134;28;20058;-51
2021/11/23 02:18:58;;;;;;;12.85;7.10;;;;;;;1.68;91.14;96522.41;4992451;28;20042;-55
2021/11/23 02:21:26;;;;;;;12.38;7.57;;;;;;;2.07;91.69;96520.13;4977934;28;20043;-50
2021/11/23 02:23:52;;;;;;;13.20;8.10;;;;;;;2.19;90.98;96521.78;4988074;28;20034;-50
2021/11/23 02:26:19;;;;;;;13.10;7.35;;;;;;;2.24;90.10;96519.91;4992266;28;20492;-53
2021/11/23 02:28:47;;;;;;;12.57;7.50;;;;;;;2.03;90.96;96519.06;4991912;28;20047;-52
2021/11/23 02:31:14;;;;;;;11.88;7.13;;;;;;;2.45;89.82;96528.75;4991216;28;20130;-52
2021/11/23 02:33:41;;;;;;;11.57;7.25;;;;;;;1.87;91.29;96517.41;4993288;28;20055;-50
2021/11/23 02:36:10;;;;;;;12.98;7.05;;;;;;;2.27;89.35;96518.56;4984202;28;20496;-50
2021/11/23 02:38:38;;;;;;;14.57;7.75;;;;;;;1.80;91.69;96522.19;4992235;28;20054;-54
2021/11/23 02:41:08;;;;;;;14.05;7.97;;;;;;;2.02;90.57;96512.13;4981151;28;20042;-57
2021/11/23 02:43:36;;;;;;;12.75;8.40;;;;;;;1.87;91.26;96517.41;4982437;28;20460;-53
2021/11/23 02:46:03;;;;;;;12.82;7.60;;;;;;;1.75;91.67;96517.63;4993290;28;20046;-53
2021/11/23 02:48:30;;;;;;;14.45;7.18;;;;;;;1.69;92.27;96523.19;4992941;28;20046;-52
2021/11/23 02:53:31;;;;;;;11.55;7.85;;;;;;;1.97;91.64;96525.44;4990790;28;20070;-51
2021/11/23 02:55:59;;;;;;;13.32;7.68;;;;;;;1.77;91.06;96528.84;4989666;28;20054;-54
2021/11/23 02:58:29;;;;;;;15.13;8.68;;;;;;;1.71;92.33;96527.22;4989700;28;20061;-52
2021/11/23 03:00:59;;;;;;;14.88;8.90;;;;;;;1.67;92.25;96520.00;4989115;28;20049;-55
2021/11/23 03:03:26;;;;;;;11.70;7.03;;;;;;;1.74;92.06;96525.91;4990720;28;20141;-49
2021/11/23 03:05:53;;;;;;;14.38;8.02;;;;;;;1.97;91.59;96519.31;4991452;28;20042;-56
2021/11/23 03:08:21;;;;;;;14.98;7.90;;;;;;;1.95;91.62;96514.25;4992071;28;20049;-52
2021/11/23 03:10:48;;;;;;;12.40;7.28;;;;;;;2.18;90.33;96528.16;4993048;28;20396;-49
2021/11/23 03:13:15;;;;;;;14.60;7.63;;;;;;;2.03;90.42;96527.06;4976528;28;20519;-50
2021/11/23 03:15:42;;;;;;;11.68;7.05;;;;;;;2.12;89.97;96524.69;4976270;28;20432;-50
2021/11/23 03:18:10;;;;;;;12.80;7.72;;;;;;;2.09;89.81;96517.22;4984746;28;20568;-50
2021/11/23 03:20:38;;;;;;;10.95;6.90;;;;;;;2.11;90.25;96525.75;4979128;28;20046;-50
2021/11/23 03:23:06;;;;;;;13.80;8.05;;;;;;;1.85;90.71;96538.19;4992863;28;20146;-53
2021/11/23 03:25:33;;;;;;;16.52;9.18;;;;;;;1.75;91.33;96524.81;4988543;28;20049;-52
2021/11/23 03:28:03;;;;;;;13.55;7.72;;;;;;;1.99;90.28;96523.31;4973616;28;20051;-49
2021/11/23 03:30:31;;;;;;;14.25;8.43;;;;;;;1.45;90.49;96518.31;4974197;28;20412;-50
2021/11/23 03:33:01;;;;;;;12.50;7.97;;;;;;;1.54;91.04;96526.63;4989414;28;20046;-50
2021/11/23 03:35:30;;;;;;;12.80;7.80;;;;;;;1.86;91.14;96529.16;4983154;28;20058;-52
2021/11/23 03:37:57;;;;;;;11.65;7.40;;;;;;;1.97;90.00;96528.09;4988879;28;20082;-49
2021/11/23 03:40:26;;;;;;;14.02;7.90;;;;;;;1.74;90.74;96529.38;4992576;28;20057;-51
2021/11/23 03:42:54;;;;;;;11.25;7.20;;;;;;;1.52;92.18;96534.06;4991469;28;20053;-49
2021/11/23 03:45:22;;;;;;;14.02;8.10;;;;;;;1.45;92.33;96536.16;4980199;28;20689;-50
2021/11/23 03:47:51;;;;;;;13.32;8.30;;;;;;;1.72;90.83;96531.47;4992659;28;20132;-49
2021/11/23 03:50:18;;;;;;;15.18;8.30;;;;;;;1.50;91.68;96525.53;4990536;28;20053;-49
2021/11/23 03:52:47;;;;;;;14.20;8.13;;;;;;;1.64;90.76;96522.13;4982397;28;20039;-50
2021/11/23 03:55:17;;;;;;;13.02;8.15;;;;;;;1.38;91.57;96523.06;4982815;28;20043;-50
2021/11/23 03:57:46;;;;;;;13.98;8.07;;;;;;;1.36;92.37;96527.84;4974107;28;20681;-49
2021/11/23 04:00:15;;;;;;;14.57;8.50;;;;;;;1.26;92.19;96531.25;4991030;28;20125;-51
2021/11/23 04:02:47;;;;;;;14.50;8.20;;;;;;;1.25;92.68;96518.19;4990161;28;20065;-53
2021/11/23 04:05:14;;;;;;;13.27;8.18;;;;;;;0.96;92.34;96513.22;4990524;28;20048;-53
2021/11/23 04:07:41;;;;;;;13.35;7.22;;;;;;;1.45;91.02;96522.84;4989967;28;20050;-52
2021/11/23 04:10:11;;;;;;;13.95;7.57;;;;;;;1.57;91.20;96532.22;4978890;28;20051;-53
2021/11/23 04:12:38;;;;;;;14.10;8.30;;;;;;;1.23;92.07;96531.78;4990014;28;20046;-54
2021/11/23 04:15:07;;;;;;;14.25;8.02;;;;;;;1.34;91.78;96530.78;4992074;28;20056;-55
2021/11/23 04:17:35;;;;;;;14.13;8.35;;;;;;;1.40;91.09;96526.28;4990530;28;20482;-53
2021/11/23 04:20:06;;;;;;;14.65;8.73;;;;;;;1.47;91.04;96532.19;4991373;28;20043;-54
2021/11/23 04:22:33;;;;;;;15.00;8.43;;;;;;;1.08;92.47;96529.84;4986287;28;20043;-54
2021/11/23 04:25:01;;;;;;;15.18;8.73;;;;;;;1.36;91.61;96531.31;4983264;28;20046;-53
2021/11/23 04:27:28;;;;;;;12.77;7.72;;;;;;;1.30;91.23;96526.22;4990624;28;20128;-53
2021/11/23 04:29:55;;;;;;;15.05;8.45;;;;;;;1.28;91.29;96529.16;4990965;28;20492;-55
2021/11/23 04:32:22;;;;;;;14.88;9.02;;;;;;;1.01;92.23;96528.44;4984201;28;20142;-51
2021/11/23 04:34:49;;;;;;;14.43;7.88;;;;;;;1.01;92.33;96537.25;4988237;28;20053;-53
2021/11/23 04:37:16;;;;;;;14.38;8.48;;;;;;;1.12;92.22;96536.25;4988312;28;20399;-49
2021/11/23 04:39:43;;;;;;;13.13;8.32;;;;;;;0.97;92.43;96533.47;4989162;28;20053;-49
2021/11/23 04:42:10;;;;;;;14.25;8.40;;;;;;;1.28;91.60;96541.69;4990726;28;20043;-50
2021/11/23 04:44:37;;;;;;;18.55;8.95;;;;;;;1.10;91.82;96538.34;4991670;28;20053;-49
2021/11/23 04:47:04;;;;;;;13.73;8.50;;;;;;;1.23;90.87;96546.97;4989999;28;20042;-52
2021/11/23 04:49:31;;;;;;;16.23;8.65;;;;;;;1.26;90.93;96541.13;4989265;28;20142;-53
2021/11/23 04:51:58;;;;;;;17.60;8.88;;;;;;;1.19;90.61;96533.34;4977316;28;20548;-53
2021/11/23 04:54:25;;;;;;;14.70;8.07;;;;;;;1.24;90.42;96536.06;4983949;28;20423;-49
2021/11/23 04:56:52;;;;;;;15.05;8.45;;;;;;;0.87;91.79;96544.06;4987493;28;20046;-49
2021/11/23 04:59:19;;;;;;;16.02;9.00;;;;;;;0.84;92.94;96549.91;4991317;28;20046;-52
2021/11/23 05:01:47;;;;;;;13.20;8.05;;;;;;;0.89;92.58;96548.09;4990691;28;20051;-54
2021/11/23 05:04:14;;;;;;;16.60;9.07;;;;;;;0.88;92.46;96553.69;4978657;28;20051;-53
2021/11/23 05:06:41;;;;;;;15.20;9.20;;;;;;;0.90;92.61;96564.88;4995784;28;20054;-54
2021/11/23 05:09:07;;;;;;;15.60;9.15;;;;;;;0.80;92.53;96572.78;4992332;28;20043;-52
2021/11/23 05:11:36;;;;;;;14.63;8.98;;;;;;;1.27;91.49;96569.38;4991723;28;20050;-54
2021/11/23 05:14:03;;;;;;;15.23;8.48;;;;;;;0.85;93.03;96573.63;4994528;28;20042;-56
2021/11/23 05:16:30;;;;;;;13.07;8.25;;;;;;;0.71;93.00;96572.44;4979195;28;20043;-53
2021/11/23 05:18:57;;;;;;;17.50;8.27;;;;;;;0.90;92.23;96578.19;4988763;28;20053;-53
2021/11/23 05:21:24;;;;;;;18.10;9.27;;;;;;;0.93;91.77;96575.81;4994915;28;20042;-50
2021/11/23 05:23:51;;;;;;;14.18;8.00;;;;;;;1.17;90.88;96573.59;4992535;28;20038;-54
2021/11/23 05:26:18;;;;;;;15.38;9.00;;;;;;;1.24;90.13;96572.59;4977830;28;20055;-50
2021/11/23 05:28:45;;;;;;;16.23;8.73;;;;;;;1.08;91.34;96580.47;4976143;28;20046;-52
2021/11/23 05:31:12;;;;;;;15.68;9.20;;;;;;;0.78;91.56;96588.19;4990893;28;20038;-50
2021/11/23 05:33:39;;;;;;;14.43;8.63;;;;;;;1.15;90.92;96583.72;4991313;28;20061;-53
2021/11/23 05:36:06;;;;;;;15.00;9.00;;;;;;;0.96;89.72;96587.81;4994153;28;20049;-52
2021/11/23 05:38:33;;;;;;;15.13;8.82;;;;;;;0.92;91.56;96586.75;4994491;28;20042;-53
2021/11/23 05:41:00;;;;;;;16.30;8.68;;;;;;;0.65;91.96;96584.91;4993802;28;20125;-54
2021/11/23 05:43:28;;;;;;;14.48;8.75;;;;;;;1.10;90.10;96582.88;4994043;28;20100;-50
2021/11/23 05:45:55;;;;;;;13.80;8.60;;;;;;;1.20;90.26;96582.13;4984094;28;20057;-53
2021/11/23 05:48:21;;;;;;;15.07;8.63;;;;;;;1.23;90.11;96573.63;4994225;28;20084;-52
2021/11/23 05:50:49;;;;;;;16.92;9.13;;;;;;;1.22;90.13;96578.16;4986589;28;20066;-50
2021/11/23 05:53:16;;;;;;;13.30;8.10;;;;;;;1.09;90.59;96583.94;4982163;28;20039;-57
2021/11/23 05:55:43;;;;;;;17.98;8.90;;;;;;;0.90;91.44;96584.31;4993332;28;20049;-55
2021/11/23 05:58:10;;;;;;;13.93;8.60;;;;;;;1.23;89.87;96584.28;4993027;28;20049;-53
2021/11/23 06:00:36;;;;;;;14.35;9.15;;;;;;;0.99;90.44;96584.66;4989405;28;20073;-57
2021/11/23 06:03:04;;;;;;;16.60;8.70;;;;;;;0.63;90.87;96576.38;4982149;28;20031;-56
2021/11/23 06:05:31;;;;;;;13.32;8.63;;;;;;;1.31;89.68;96581.94;4994216;28;20050;-56
2021/11/23 06:07:57;;;;;;;15.52;9.07;;;;;;;1.43;88.68;96587.09;4993544;28;20038;-56
2021/11/23 06:10:24;;;;;;;14.93;7.93;;;;;;;0.50;91.72;96591.97;4981230;28;20594;-57
2021/11/23 06:12:51;;;;;;;14.75;8.68;;;;;;;1.33;89.85;96592.34;4981844;28;20046;-53
2021/11/23 06:15:19;;;;;;;13.70;8.27;;;;;;;1.06;89.36;96590.56;4989062;28;20507;-51
2021/11/23 06:17:47;;;;;;;15.35;9.23;;;;;;;1.17;89.85;96592.25;4987911;28;20048;-51
2021/11/23 06:20:14;;;;;;;17.13;9.20;;;;;;;0.91;90.87;96601.94;4981302;28;20047;-52
2021/11/23 06:22:41;;;;;;;14.40;8.75;;;;;;;1.15;90.57;96604.22;4979200;28;20399;-52
2021/11/23 06:25:09;;;;;;;19.42;9.32;;;;;;;0.86;91.19;96593.88;4992536;28;20972;-53
2021/11/23 06:27:36;;;;;;;16.20;8.93;;;;;;;1.11;90.42;96597.81;4990712;28;20042;-56
2021/11/23 06:30:06;;;;;;;15.48;9.25;;;;;;;1.01;90.72;96601.22;4991155;28;20077;-56
2021/11/23 06:32:33;;;;;;;15.32;8.80;;;;;;;1.04;90.90;96608.69;4989755;28;20129;-53
2021/11/23 06:35:00;;;;;;;16.08;9.18;;;;;;;0.75;92.08;96610.00;4993533;28;20050;-50
2021/11/23 06:37:27;;;;;;;14.73;8.48;;;;;;;1.02;91.36;96610.78;4993385;28;20057;-49
2021/11/23 06:39:55;;;;;;;16.00;9.32;;;;;;;1.02;92.17;96613.47;4979498;28;20074;-56
2021/11/23 06:42:22;;;;;;;15.95;9.50;;;;;;;0.95;94.13;96615.53;4993066;28;20054;-55
2021/11/23 06:44:49;;;;;;;17.08;9.50;;;;;;;1.14;90.92;96616.75;4992381;28;20049;-54
2021/11/23 06:47:16;;;;;;;16.25;9.85;;;;;;;0.86;93.34;96630.38;4990878;28;20061;-52
2021/11/23 06:49:43;;;;;;;15.27;9.48;;;;;;;0.89;92.88;96624.53;4981893;28;20046;-52
2021/11/23 06:52:10;;;;;;;16.50;9.48;;;;;;;1.20;90.82;96641.56;4990669;28;20049;-53
2021/11/23 06:54:37;;;;;;;15.98;9.48;;;;;;;1.02;91.68;96640.09;4979030;28;20046;-53
2021/11/23 06:57:05;;;;;;;17.15;9.10;;;;;;;1.03;91.60;96640.91;4974250;28;20054;-50
2021/11/23 06:59:37;;;;;;;16.17;9.50;;;;;;;0.99;91.14;96643.28;4991556;28;20077;-51
2021/11/23 07:02:04;;;;;;;17.83;9.75;;;;;;;0.82;91.94;96647.94;4992329;28;20039;-50
2021/11/23 07:04:33;;;;;;;17.88;10.15;;;;;;;1.01;91.06;96654.50;4990345;28;20412;-50
2021/11/23 07:07:00;;;;;;;17.90;10.05;;;;;;;1.23;89.76;96654.38;4990652;28;20047;-53
2021/11/23 07:09:27;;;;;;;16.65;9.27;;;;;;;0.85;91.58;96660.75;4989062;28;20145;-51
2021/11/23 07:11:54;;;;;;;16.05;9.43;;;;;;;0.85;92.16;96663.41;4980608;28;20042;-49
2021/11/23 07:14:21;;;;;;;18.15;9.57;;;;;;;0.89;91.89;96656.50;4975949;28;20148;-54
2021/11/23 07:16:49;;;;;;;15.82;9.23;;;;;;;0.97;91.99;96656.03;4990593;28;20050;-57
2021/11/23 07:19:16;;;;;;;16.83;10.13;;;;;;;0.86;92.71;96670.34;4982103;28;20038;-56
2021/11/23 07:21:43;;;;;;;16.52;10.02;;;;;;;0.84;92.41;96672.44;4982880;28;22010;-57
2021/11/23 07:24:11;;;;;;;15.07;9.68;;;;;;;1.21;91.62;96671.72;4987868;28;20093;-57
2021/11/23 07:26:38;;;;;;;15.43;9.65;;;;;;;1.17;90.97;96666.09;4992333;28;20047;-57
2021/11/23 07:29:07;;;;;;;17.35;10.25;;;;;;;0.99;91.72;96679.78;4992754;28;20122;-55
2021/11/23 07:31:34;;;;;;;17.92;10.00;;;;;;;0.87;92.28;96671.94;4975464;28;20043;-56
2021/11/23 07:34:02;;;;;;;17.92;9.88;;;;;;;0.84;92.47;96683.09;4981169;28;20065;-57
2021/11/23 07:36:29;;;;;;;16.10;9.93;;;;;;;0.69;91.87;96678.44;4993009;28;20042;-57
2021/11/23 07:39:00;;;;;;;15.70;9.82;;;;;;;0.73;93.10;96678.72;4991333;28;20043;-57
2021/11/23 07:41:28;;;;;;;17.17;9.70;;;;;;;1.02;92.09;96676.63;4991362;28;20058;-57
2021/11/23 07:43:56;;;;;;;15.80;9.18;;;;;;;1.17;91.41;96682.88;4992128;28;20046;-57
2021/11/23 07:46:23;;;;;;;17.38;10.00;;;;;;;1.32;90.81;96676.84;4992745;28;20046;-57
2021/11/23 07:48:52;;;;;;;18.83;9.65;;;;;;;1.27;90.07;96668.00;4991168;28;20129;-54
2021/11/23 07:51:19;;;;;;;16.13;9.60;;;;;;;1.29;91.38;96673.91;4991581;28;20134;-57
2021/11/23 07:53:46;;;;;;;17.55;9.95;;;;;;;1.17;91.46;96685.56;4990429;28;20042;-55
2021/11/23 07:56:13;;;;;;;15.45;9.48;;;;;;;1.19;91.41;96682.63;4991473;28;20129;-54
2021/11/23 07:58:40;;;;;;;18.58;10.25;;;;;;;1.43;90.14;96683.09;4984963;28;20046;-57
2021/11/23 08:01:07;;;;;;;17.75;9.90;;;;;;;1.78;88.22;96682.50;4971993;28;20043;-56
2021/11/23 08:03:34;;;;;;;14.30;9.05;;;;;;;1.36;90.80;96680.63;4976687;28;20045;-58
2021/11/23 08:06:01;;;;;;;16.17;9.70;;;;;;;1.27;91.32;96679.50;4992554;28;20431;-58
2021/11/23 08:08:29;;;;;;;15.10;9.80;;;;;;;1.12;91.06;96674.03;4986982;28;20206;-56
2021/11/23 08:10:58;;;;;;;16.10;9.65;;;;;;;1.06;91.63;96675.84;4973089;28;20054;-57
2021/11/23 08:13:25;;;;;;;14.20;8.90;;;;;;;1.26;90.11;96683.22;4983362;28;20133;-57
2021/11/23 08:15:53;;;;;;;14.55;8.90;;;;;;;1.37;90.65;96684.91;4974246;28;20050;-57
2021/11/23 08:18:20;;;;;;;18.27;9.85;;;;;;;1.55;89.52;96682.91;4990431;28;20058;-57
2021/11/23 08:20:47;;;;;;;16.35;9.75;;;;;;;1.55;89.98;96682.91;4974202;28;20048;-57
2021/11/23 08:23:14;;;;;;;17.08;9.73;;;;;;;1.47;90.10;96686.06;4992328;28;20049;-57
2021/11/23 08:25:41;;;;;;;16.20;10.30;;;;;;;1.66;88.95;96692.59;4992631;28;20073;-56
2021/11/23 08:28:09;;;;;;;17.38;9.63;;;;;;;1.42;90.26;96692.13;4994986;28;20038;-57
2021/11/23 08:30:36;;;;;;;16.48;9.70;;;;;;;1.44;90.25;96698.03;4997233;28;20160;-57
2021/11/23 08:33:02;;;;;;;18.17;10.38;;;;;;;1.53;90.50;96685.84;4995708;28;20411;-58
2021/11/23 08:35:30;;;;;;;16.90;9.70;;;;;;;1.71;89.26;96689.94;4996617;28;20054;-58
2021/11/23 08:37:57;;;;;;;17.08;9.63;;;;;;;1.86;89.40;96689.25;4992677;28;20046;-58
2021/11/23 08:40:24;;;;;;;16.77;10.18;;;;;;;1.81;88.89;96691.88;4977959;28;20050;-57
2021/11/23 08:42:51;;;;;;;16.33;9.68;;;;;;;1.70;88.08;96696.34;4989670;28;20039;-58
2021/11/23 08:45:18;;;;;;;17.30;10.45;;;;;;;1.90;87.86;96693.00;4995505;28;20051;-56
2021/11/23 08:47:47;;;;;;;17.55;10.07;;;;;;;1.95;88.83;96693.03;4995972;28;20456;-58
2021/11/23 08:50:14;;;;;;;16.17;10.27;;;;;;;1.95;88.87;96687.72;4991554;28;20568;-58
2021/11/23 08:52:41;;;;;;;19.40;10.15;;;;;;;1.96;89.03;96697.31;4988347;28;20058;-57
2021/11/23 08:55:09;;;;;;;17.42;11.27;;;;;;;2.10;87.90;96703.00;4994375;28;20057;-57
2021/11/23 08:57:37;;;;;;;17.20;10.55;;;;;;;2.46;86.94;96701.28;4996042;28;20419;-55
2021/11/23 09:00:13;;;;;;;17.65;9.93;;;;;;;2.60;86.96;96695.44;4995858;28;20381;-57
2021/11/23 09:02:42;;;;;;;16.92;10.30;;;;;;;2.47;86.08;96700.25;4993530;28;20053;-54
2021/11/23 09:05:11;;;;;;;15.55;9.70;;;;;;;2.07;87.71;96703.50;4995168;28;20089;-57
2021/11/23 09:07:39;;;;;;;16.85;10.18;;;;;;;2.01;87.55;96708.00;4994394;28;20048;-57
2021/11/23 09:10:13;;;;;;;16.40;9.55;;;;;;;2.13;87.97;96709.69;4985501;28;20113;-54
2021/11/23 09:12:40;;;;;;;16.55;10.40;;;;;;;2.25;87.36;96707.63;4992395;28;20049;-56
2021/11/23 09:15:07;;;;;;;14.85;9.35;;;;;;;2.45;86.46;96710.38;4976130;28;20047;-56
2021/11/23 09:17:34;;;;;;;16.17;9.85;;;;;;;2.33;87.09;96707.91;4985108;28;20043;-56
2021/11/23 09:20:01;;;;;;;15.05;9.70;;;;;;;2.14;86.40;96719.28;4975445;28;20493;-57
2021/11/23 09:22:28;;;;;;;17.13;10.15;;;;;;;2.63;85.27;96719.78;4975858;28;20082;-56
2021/11/23 09:24:55;;;;;;;15.82;9.93;;;;;;;2.56;83.78;96721.88;4993148;28;20050;-55
2021/11/23 09:27:22;;;;;;;15.27;9.30;;;;;;;2.19;86.57;96714.00;4995475;28;20042;-55
2021/11/23 09:29:49;;;;;;;17.55;10.10;;;;;;;2.63;85.56;96718.97;4994907;28;20050;-57
2021/11/23 09:32:16;;;;;;;21.80;10.80;;;;;;;3.16;84.46;96725.81;4993839;28;20052;-57
2021/11/23 09:34:43;;;;;;;17.35;9.93;;;;;;;2.71;85.78;96718.47;4993805;28;20500;-57
2021/11/23 09:37:11;;;;;;;16.10;9.80;;;;;;;2.72;86.54;96733.44;5006800;28;20052;-54
2021/11/23 09:39:38;;;;;;;17.20;10.35;;;;;;;2.89;85.03;96726.00;4994702;28;20384;-53
2021/11/23 09:42:05;;;;;;;16.15;10.23;;;;;;;2.90;85.18;96729.50;4978363;28;20043;-55
2021/11/23 09:44:33;;;;;;;16.42;10.27;;;;;;;2.72;86.45;96726.22;4995127;28;20450;-57
2021/11/23 09:47:01;;;;;;;17.92;10.68;;;;;;;3.03;85.49;96729.00;4994697;28;20046;-53
2021/11/23 09:49:30;;;;;;;18.27;11.68;;;;;;;2.72;85.69;96726.22;4994469;28;20181;-57
2021/11/23 09:51:57;;;;;;;15.45;10.70;;;;;;;2.78;85.73;96721.69;4994237;28;20407;-54
2021/11/23 09:54:25;;;;;;;18.15;11.35;;;;;;;3.22;83.91;96718.59;4993438;28;20125;-54
2021/11/23 09:56:52;;;;;;;15.20;10.02;;;;;;;2.79;84.58;96720.63;4994399;28;20406;-56
2021/11/23 09:59:19;;;;;;;21.08;12.70;;;;;;;2.66;86.36;96716.56;4994773;28;20060;-56
2021/11/23 10:01:55;;;;;;;17.90;11.43;;;;;;;2.66;85.72;96727.25;4979070;28;20053;-55
2021/11/23 10:04:27;;;;;;;19.05;11.77;;;;;;;3.17;84.94;96716.72;4994404;28;20050;-55
2021/11/23 10:06:58;;;;;;;23.20;12.93;;;;;;;3.00;85.20;96716.94;4994264;28;20389;-56
2021/11/23 10:09:44;;;;;;;21.75;11.77;;;;;;;2.78;86.55;96721.69;4994460;28;20046;-54
2021/11/23 10:12:15;;;;;;;19.98;13.32;;;;;;;2.77;86.48;96714.75;4992552;28;20054;-57
2021/11/23 10:15:19;;;;;;;18.38;12.18;;;;;;;3.16;85.55;96722.34;4994756;28;20049;-57
2021/11/23 10:17:49;;;;;;;19.95;12.68;;;;;;;2.81;87.24;96723.84;5001529;28;20046;-57
2021/11/23 10:20:24;;;;;;;20.02;12.00;;;;;;;2.59;87.66;96713.34;4989881;28;20138;-56
2021/11/23 10:22:51;;;;;;;18.02;11.23;;;;;;;2.64;88.30;96715.25;4983749;28;20042;-54
2021/11/23 10:25:18;;;;;;;19.15;12.27;;;;;;;2.97;86.35;96700.63;4993320;28;20044;-55
2021/11/23 10:27:45;;;;;;;17.65;11.85;;;;;;;3.14;84.68;96697.72;4991681;28;20048;-54
2021/11/23 10:30:12;;;;;;;18.83;12.55;;;;;;;2.76;86.62;96702.44;4994286;28;20047;-54
2021/11/23 10:32:46;;;;;;;20.25;12.38;;;;;;;2.86;86.69;96710.50;4992141;28;20042;-54
2021/11/23 10:35:22;;;;;;;18.10;11.85;;;;;;;2.56;87.06;96704.00;4994235;28;20048;-57
2021/11/23 10:37:50;;;;;;;17.75;11.85;;;;;;;2.87;86.73;96711.31;4987448;28;20043;-56
2021/11/23 10:40:24;;;;;;;20.77;13.15;;;;;;;2.86;86.67;96707.84;4984344;28;20048;-56
2021/11/23 10:42:57;;;;;;;17.75;11.95;;;;;;;3.33;84.80;96709.50;4993084;28;20057;-57
2021/11/23 10:45:25;;;;;;;19.65;12.43;;;;;;;3.58;83.59;96700.69;4993968;28;20050;-54
2021/11/23 10:47:52;;;;;;;20.58;13.27;;;;;;;3.58;83.23;96705.25;4988608;28;20473;-57
2021/11/23 10:50:20;;;;;;;20.63;13.23;;;;;;;3.51;83.28;96703.63;4990615;28;20077;-57
2021/11/23 10:52:50;;;;;;;19.30;12.57;;;;;;;3.41;83.94;96698.28;4992986;28;20038;-56
2021/11/23 10:55:17;;;;;;;18.65;12.45;;;;;;;3.09;83.45;96695.03;4992677;28;20046;-57
2021/11/23 10:57:44;;;;;;;20.63;13.40;;;;;;;3.54;82.91;96696.94;4993016;28;20433;-56
2021/11/23 11:00:13;;;;;;;18.98;12.60;;;;;;;3.50;82.99;96702.00;4985230;28;20051;-57
2021/11/23 11:02:41;;;;;;;20.50;13.43;;;;;;;3.67;83.24;96692.91;4974125;28;20122;-56
2021/11/23 11:05:14;;;;;;;19.00;12.95;;;;;;;3.74;82.78;96698.81;4988384;28;20038;-56
2021/11/23 11:07:46;;;;;;;19.75;12.73;;;;;;;4.16;81.33;96693.09;4975035;28;20054;-57
2021/11/23 11:10:14;;;;;;;19.90;12.82;;;;;;;4.04;82.84;96689.91;4993507;28;20050;-52
2021/11/23 11:12:41;;;;;;;19.20;12.07;;;;;;;4.09;81.52;96694.44;4991924;28;20052;-54
2021/11/23 11:15:11;;;;;;;17.38;12.00;;;;;;;4.09;82.19;96686.41;4991549;28;20080;-55
2021/11/23 11:17:39;;;;;;;20.30;13.25;;;;;;;3.94;82.41;96685.38;4986491;28;20052;-52
2021/11/23 11:20:11;;;;;;;19.33;13.30;;;;;;;4.11;81.07;96690.44;4987653;28;20452;-51
2021/11/23 11:22:52;;;;;;;21.17;13.32;;;;;;;4.91;79.43;96678.84;4991864;28;20189;-52
2021/11/23 11:25:24;;;;;;;17.85;12.95;;;;;;;5.57;78.25;96670.31;4986409;28;20074;-51
2021/11/23 11:27:52;;;;;;;16.38;11.68;;;;;;;6.21;76.59;96675.66;4972343;28;20047;-49
2021/11/23 11:30:33;;;;;;;17.17;12.05;;;;;;;6.41;72.67;96680.00;4977873;28;20042;-50
2021/11/23 11:33:06;;;;;;;16.83;11.15;;;;;;;5.86;76.08;96678.38;4991815;28;20035;-51
2021/11/23 11:35:50;;;;;;;15.57;9.75;;;;;;;4.57;78.10;96665.34;4988649;28;21392;-51
2021/11/23 11:38:29;;;;;;;15.00;10.50;;;;;;;4.93;80.11;96664.06;4973610;28;20045;-53